sensor_id;sensor_type;location;lat;lon;timestamp;pressure;altitude;pressure_sealevel;temperature;humidity
61478;BME280;47345;52.334;10.392;2023-02-28T00:00:40;102417.77;;;0.70;76.36
61478;BME280;47345;52.334;10.392;2023-02-28T00:03:13;102419.41;;;0.69;76.38
61478;BME280;47345;52.334;10.392;2023-02-28T00:05:47;102422.01;;;0.68;76.29
61478;BME280;47345;52.334;10.392;2023-02-28T00:08:19;102423.73;;;0.66;76.47
61478;BME280;47345;52.334;10.392;2023-02-28T00:10:52;102425.77;;;0.63;76.12
61478;BME280;47345;52.334;10.392;2023-02-28T00:13:27;102424.67;;;0.60;76.25
61478;BME280;47345;52.334;10.392;2023-02-28T00:16:05;102418.70;;;0.58;76.18
61478;BME280;47345;52.334;10.392;2023-02-28T00:18:39;102418.92;;;0.57;76.77
61478;BME280;47345;52.334;10.392;2023-02-28T00:21:13;102426.21;;;0.56;76.18
61478;BME280;47345;52.334;10.392;2023-02-28T00:23:45;102419.02;;;0.53;76.23
61478;BME280;47345;52.334;10.392;2023-02-28T00:26:24;102421.64;;;0.52;76.24
61478;BME280;47345;52.334;10.392;2023-02-28T00:28:56;102419.48;;;0.49;75.95
61478;BME280;47345;52.334;10.392;2023-02-28T00:31:31;102417.23;;;0.45;75.99
61478;BME280;47345;52.334;10.392;2023-02-28T00:34:04;102417.23;;;0.42;75.87
61478;BME280;47345;52.334;10.392;2023-02-28T00:36:37;102418.92;;;0.38;75.73
61478;BME280;47345;52.334;10.392;2023-02-28T00:39:11;102414.82;;;0.35;76.18
61478;BME280;47345;52.334;10.392;2023-02-28T00:41:46;102414.98;;;0.33;75.78
61478;BME280;47345;52.334;10.392;2023-02-28T00:44:19;102412.87;;;0.29;76.05
61478;BME280;47345;52.334;10.392;2023-02-28T00:46:54;102412.02;;;0.22;75.80
61478;BME280;47345;52.334;10.392;2023-02-28T00:49:30;102417.61;;;0.19;75.97
61478;BME280;47345;52.334;10.392;2023-02-28T00:52:04;102411.89;;;0.13;75.69
61478;BME280;47345;52.334;10.392;2023-02-28T00:54:37;102416.12;;;0.09;75.86
61478;BME280;47345;52.334;10.392;2023-02-28T00:57:10;102420.03;;;0.03;75.69
61478;BME280;47345;52.334;10.392;2023-02-28T00:59:43;102418.86;;;-0.01;76.11
61478;BME280;47345;52.334;10.392;2023-02-28T01:02:15;102417.26;;;-0.04;76.41
61478;BME280;47345;52.334;10.392;2023-02-28T01:04:51;102419.91;;;-0.06;76.80
61478;BME280;47345;52.334;10.392;2023-02-28T01:07:28;102424.48;;;-0.08;76.77
61478;BME280;47345;52.334;10.392;2023-02-28T01:10:01;102420.83;;;-0.10;77.01
61478;BME280;47345;52.334;10.392;2023-02-28T01:12:34;102422.77;;;-0.11;77.33
61478;BME280;47345;52.334;10.392;2023-02-28T01:15:09;102420.41;;;-0.14;77.52
61478;BME280;47345;52.334;10.392;2023-02-28T01:17:42;102414.59;;;-0.16;77.44
61478;BME280;47345;52.334;10.392;2023-02-28T01:20:16;102414.57;;;-0.19;77.26
61478;BME280;47345;52.334;10.392;2023-02-28T01:22:50;102408.75;;;-0.20;76.91
61478;BME280;47345;52.334;10.392;2023-02-28T01:25:23;102408.14;;;-0.22;77.23
61478;BME280;47345;52.334;10.392;2023-02-28T01:27:57;102412.41;;;-0.24;77.24
61478;BME280;47345;52.334;10.392;2023-02-28T01:30:30;102413.95;;;-0.26;77.35
61478;BME280;47345;52.334;10.392;2023-02-28T01:33:03;102413.88;;;-0.27;77.48
61478;BME280;47345;52.334;10.392;2023-02-28T01:35:37;102408.96;;;-0.30;77.58
61478;BME280;47345;52.334;10.392;2023-02-28T01:38:10;102408.14;;;-0.31;78.01
61478;BME280;47345;52.334;10.392;2023-02-28T01:40:53;102401.30;;;-0.33;78.52
61478;BME280;47345;52.334;10.392;2023-02-28T01:43:28;102402.61;;;-0.35;78.83
61478;BME280;47345;52.334;10.392;2023-02-28T01:46:02;102398.73;;;-0.35;78.88
61478;BME280;47345;52.334;10.392;2023-02-28T01:48:38;102398.63;;;-0.36;78.94
61478;BME280;47345;52.334;10.392;2023-02-28T01:51:14;102394.73;;;-0.40;78.51
61478;BME280;47345;52.334;10.392;2023-02-28T01:53:58;102398.27;;;-0.45;78.26
61478;BME280;47345;52.334;10.392;2023-02-28T01:56:35;102397.38;;;-0.48;78.52
61478;BME280;47345;52.334;10.392;2023-02-28T01:59:08;102400.41;;;-0.51;78.22
61478;BME280;47345;52.334;10.392;2023-02-28T02:01:41;102393.92;;;-0.53;78.87
61478;BME280;47345;52.334;10.392;2023-02-28T02:04:15;102395.02;;;-0.54;78.85
61478;BME280;47345;52.334;10.392;2023-02-28T02:06:51;102385.90;;;-0.54;79.13
61478;BME280;47345;52.334;10.392;2023-02-28T02:09:23;102388.75;;;-0.53;79.33
61478;BME280;47345;52.334;10.392;2023-02-28T02:11:56;102386.04;;;-0.53;79.52
61478;BME280;47345;52.334;10.392;2023-02-28T02:14:48;102382.09;;;-0.56;79.53
61478;BME280;47345;52.334;10.392;2023-02-28T02:17:31;102378.12;;;-0.58;79.71
61478;BME280;47345;52.334;10.392;2023-02-28T02:29:50;102375.57;;;-0.76;80.41
61478;BME280;47345;52.334;10.392;2023-02-28T02:35:37;102373.16;;;-0.84;80.71
61478;BME280;47345;52.334;10.392;2023-02-28T02:38:18;102371.44;;;-0.85;80.71
61478;BME280;47345;52.334;10.392;2023-02-28T02:40:58;102375.61;;;-0.86;80.75
61478;BME280;47345;52.334;10.392;2023-02-28T02:43:38;102373.97;;;-0.88;80.81
61478;BME280;47345;52.334;10.392;2023-02-28T02:46:18;102377.69;;;-0.91;80.76
61478;BME280;47345;52.334;10.392;2023-02-28T02:48:54;102379.27;;;-0.93;81.00
61478;BME280;47345;52.334;10.392;2023-02-28T02:51:30;102389.05;;;-0.95;80.80
61478;BME280;47345;52.334;10.392;2023-02-28T02:54:06;102388.94;;;-0.96;80.91
61478;BME280;47345;52.334;10.392;2023-02-28T02:56:41;102385.46;;;-0.98;81.03
61478;BME280;47345;52.334;10.392;2023-02-28T02:59:18;102390.56;;;-0.99;81.52
61478;BME280;47345;52.334;10.392;2023-02-28T03:01:56;102386.27;;;-0.99;81.89
61478;BME280;47345;52.334;10.392;2023-02-28T03:04:33;102382.81;;;-0.99;81.97
61478;BME280;47345;52.334;10.392;2023-02-28T03:07:07;102385.23;;;-0.97;82.20
61478;BME280;47345;52.334;10.392;2023-02-28T03:09:40;102386.55;;;-0.95;82.34
61478;BME280;47345;52.334;10.392;2023-02-28T03:12:14;102389.37;;;-0.91;82.32
61478;BME280;47345;52.334;10.392;2023-02-28T03:14:59;102392.02;;;-0.87;82.02
61478;BME280;47345;52.334;10.392;2023-02-28T03:17:58;102392.02;;;-0.87;81.30
61478;BME280;47345;52.334;10.392;2023-02-28T03:20:40;102390.62;;;-0.88;81.20
61478;BME280;47345;52.334;10.392;2023-02-28T03:23:21;102390.45;;;-0.85;81.34
61478;BME280;47345;52.334;10.392;2023-02-28T03:25:59;102390.92;;;-0.81;81.33
61478;BME280;47345;52.334;10.392;2023-02-28T03:28:42;102392.73;;;-0.79;81.20
61478;BME280;47345;52.334;10.392;2023-02-28T03:31:20;102391.83;;;-0.78;80.90
61478;BME280;47345;52.334;10.392;2023-02-28T03:34:01;102395.77;;;-0.78;80.93
61478;BME280;47345;52.334;10.392;2023-02-28T03:36:39;102391.47;;;-0.78;80.87
61478;BME280;47345;52.334;10.392;2023-02-28T03:39:18;102392.37;;;-0.79;80.77
61478;BME280;47345;52.334;10.392;2023-02-28T03:41:55;102389.86;;;-0.81;80.47
61478;BME280;47345;52.334;10.392;2023-02-28T03:44:32;102393.48;;;-0.82;80.66
61478;BME280;47345;52.334;10.392;2023-02-28T03:47:10;102392.39;;;-0.85;80.57
61478;BME280;47345;52.334;10.392;2023-02-28T03:49:45;102393.88;;;-0.85;80.47
61478;BME280;47345;52.334;10.392;2023-02-28T03:52:20;102396.29;;;-0.87;80.43
61478;BME280;47345;52.334;10.392;2023-02-28T03:54:59;102393.46;;;-0.87;80.51
61478;BME280;47345;52.334;10.392;2023-02-28T03:57:39;102395.11;;;-0.88;80.37
61478;BME280;47345;52.334;10.392;2023-02-28T04:00:17;102402.93;;;-0.87;80.24
61478;BME280;47345;52.334;10.392;2023-02-28T04:02:51;102409.70;;;-0.86;80.60
61478;BME280;47345;52.334;10.392;2023-02-28T04:05:25;102401.05;;;-0.86;80.30
61478;BME280;47345;52.334;10.392;2023-02-28T04:08:07;102405.02;;;-0.86;80.23
61478;BME280;47345;52.334;10.392;2023-02-28T04:10:40;102405.77;;;-0.87;80.10
61478;BME280;47345;52.334;10.392;2023-02-28T04:13:14;102409.86;;;-0.86;79.59
61478;BME280;47345;52.334;10.392;2023-02-28T04:15:46;102412.39;;;-0.86;79.53
61478;BME280;47345;52.334;10.392;2023-02-28T04:18:20;102412.37;;;-0.86;79.52
61478;BME280;47345;52.334;10.392;2023-02-28T04:20:55;102409.36;;;-0.87;79.03
61478;BME280;47345;52.334;10.392;2023-02-28T04:23:28;102411.94;;;-0.88;79.15
61478;BME280;47345;52.334;10.392;2023-02-28T04:26:02;102416.27;;;-0.89;79.23
61478;BME280;47345;52.334;10.392;2023-02-28T04:28:36;102416.12;;;-0.89;79.24
61478;BME280;47345;52.334;10.392;2023-02-28T04:31:10;102418.65;;;-0.90;79.06
61478;BME280;47345;52.334;10.392;2023-02-28T04:33:43;102416.70;;;-0.90;79.16
61478;BME280;47345;52.334;10.392;2023-02-28T04:36:15;102419.98;;;-0.91;79.48
61478;BME280;47345;52.334;10.392;2023-02-28T04:38:49;102417.85;;;-0.91;79.62
61478;BME280;47345;52.334;10.392;2023-02-28T04:41:24;102420.81;;;-0.93;79.52
61478;BME280;47345;52.334;10.392;2023-02-28T04:44:01;102417.33;;;-0.94;79.85
61478;BME280;47345;52.334;10.392;2023-02-28T04:46:35;102414.73;;;-0.96;79.69
61478;BME280;47345;52.334;10.392;2023-02-28T04:49:08;102414.08;;;-0.97;80.01
61478;BME280;47345;52.334;10.392;2023-02-28T04:51:41;102412.02;;;-0.99;80.26
61478;BME280;47345;52.334;10.392;2023-02-28T04:54:14;102412.61;;;-1.03;80.16
61478;BME280;47345;52.334;10.392;2023-02-28T04:56:49;102414.11;;;-1.04;80.45
61478;BME280;47345;52.334;10.392;2023-02-28T04:59:22;102414.34;;;-1.05;80.33
61478;BME280;47345;52.334;10.392;2023-02-28T05:01:55;102408.72;;;-1.07;80.31
61478;BME280;47345;52.334;10.392;2023-02-28T05:04:29;102413.47;;;-1.08;80.25
61478;BME280;47345;52.334;10.392;2023-02-28T05:07:06;102413.41;;;-1.10;80.20
61478;BME280;47345;52.334;10.392;2023-02-28T05:09:41;102407.46;;;-1.13;80.31
61478;BME280;47345;52.334;10.392;2023-02-28T05:12:14;102412.27;;;-1.15;80.20
61478;BME280;47345;52.334;10.392;2023-02-28T05:14:47;102425.73;;;-1.19;80.18
61478;BME280;47345;52.334;10.392;2023-02-28T05:17:20;102417.90;;;-1.26;80.08
61478;BME280;47345;52.334;10.392;2023-02-28T05:19:53;102428.85;;;-1.30;80.19
61478;BME280;47345;52.334;10.392;2023-02-28T05:22:43;102422.33;;;-1.35;80.10
61478;BME280;47345;52.334;10.392;2023-02-28T05:25:19;102422.07;;;-1.37;80.28
61478;BME280;47345;52.334;10.392;2023-02-28T05:27:53;102424.38;;;-1.39;80.00
61478;BME280;47345;52.334;10.392;2023-02-28T05:30:25;102416.83;;;-1.42;80.22
61478;BME280;47345;52.334;10.392;2023-02-28T05:33:01;102415.02;;;-1.45;80.43
61478;BME280;47345;52.334;10.392;2023-02-28T05:35:33;102416.14;;;-1.49;80.55
61478;BME280;47345;52.334;10.392;2023-02-28T05:38:05;102414.56;;;-1.50;80.83
61478;BME280;47345;52.334;10.392;2023-02-28T05:40:39;102418.29;;;-1.52;81.16
61478;BME280;47345;52.334;10.392;2023-02-28T05:43:13;102416.84;;;-1.52;81.31
61478;BME280;47345;52.334;10.392;2023-02-28T05:45:45;102429.35;;;-1.52;81.37
61478;BME280;47345;52.334;10.392;2023-02-28T05:48:18;102423.65;;;-1.52;80.92
61478;BME280;47345;52.334;10.392;2023-02-28T05:50:51;102422.95;;;-1.52;80.86
61478;BME280;47345;52.334;10.392;2023-02-28T05:53:24;102423.88;;;-1.53;80.53
61478;BME280;47345;52.334;10.392;2023-02-28T05:55:58;102420.58;;;-1.55;79.96
61478;BME280;47345;52.334;10.392;2023-02-28T05:58:32;102425.81;;;-1.56;80.27
61478;BME280;47345;52.334;10.392;2023-02-28T06:01:22;102425.38;;;-1.57;79.99
61478;BME280;47345;52.334;10.392;2023-02-28T06:03:55;102426.68;;;-1.58;80.02
61478;BME280;47345;52.334;10.392;2023-02-28T06:06:29;102431.63;;;-1.60;80.24
61478;BME280;47345;52.334;10.392;2023-02-28T06:09:06;102436.67;;;-1.61;80.12
61478;BME280;47345;52.334;10.392;2023-02-28T06:11:39;102435.65;;;-1.61;79.69
61478;BME280;47345;52.334;10.392;2023-02-28T06:14:17;102440.91;;;-1.63;79.59
61478;BME280;47345;52.334;10.392;2023-02-28T06:16:51;102444.33;;;-1.64;79.63
61478;BME280;47345;52.334;10.392;2023-02-28T06:19:25;102448.17;;;-1.65;79.76
61478;BME280;47345;52.334;10.392;2023-02-28T06:21:59;102453.05;;;-1.66;79.77
61478;BME280;47345;52.334;10.392;2023-02-28T06:24:32;102446.83;;;-1.67;79.63
61478;BME280;47345;52.334;10.392;2023-02-28T06:27:05;102442.92;;;-1.67;79.94
61478;BME280;47345;52.334;10.392;2023-02-28T06:29:38;102442.89;;;-1.66;80.14
61478;BME280;47345;52.334;10.392;2023-02-28T06:32:12;102449.45;;;-1.65;80.46
61478;BME280;47345;52.334;10.392;2023-02-28T06:34:45;102448.98;;;-1.63;80.79
61478;BME280;47345;52.334;10.392;2023-02-28T06:37:18;102451.38;;;-1.61;80.66
61478;BME280;47345;52.334;10.392;2023-02-28T06:39:51;102456.84;;;-1.60;80.56
61478;BME280;47345;52.334;10.392;2023-02-28T06:42:24;102458.60;;;-1.59;80.10
61478;BME280;47345;52.334;10.392;2023-02-28T06:45:00;102460.11;;;-1.60;80.11
61478;BME280;47345;52.334;10.392;2023-02-28T06:47:41;102462.34;;;-1.62;80.41
61478;BME280;47345;52.334;10.392;2023-02-28T06:50:14;102469.92;;;-1.63;80.38
61478;BME280;47345;52.334;10.392;2023-02-28T06:52:50;102474.43;;;-1.64;80.45
61478;BME280;47345;52.334;10.392;2023-02-28T06:55:26;102474.42;;;-1.64;80.38
61478;BME280;47345;52.334;10.392;2023-02-28T06:58:00;102480.75;;;-1.65;80.59
61478;BME280;47345;52.334;10.392;2023-02-28T07:00:34;102476.91;;;-1.67;80.42
61478;BME280;47345;52.334;10.392;2023-02-28T07:03:07;102479.08;;;-1.68;80.67
61478;BME280;47345;52.334;10.392;2023-02-28T07:05:41;102479.59;;;-1.67;80.58
61478;BME280;47345;52.334;10.392;2023-02-28T07:08:15;102477.40;;;-1.66;80.85
61478;BME280;47345;52.334;10.392;2023-02-28T07:10:48;102482.34;;;-1.65;80.95
61478;BME280;47345;52.334;10.392;2023-02-28T07:13:24;102485.16;;;-1.64;80.98
61478;BME280;47345;52.334;10.392;2023-02-28T07:15:59;102486.43;;;-1.64;80.89
61478;BME280;47345;52.334;10.392;2023-02-28T07:18:33;102486.91;;;-1.64;81.11
61478;BME280;47345;52.334;10.392;2023-02-28T07:21:07;102488.27;;;-1.62;81.34
61478;BME280;47345;52.334;10.392;2023-02-28T07:23:41;102490.04;;;-1.59;81.20
61478;BME280;47345;52.334;10.392;2023-02-28T07:26:17;102495.73;;;-1.55;81.72
61478;BME280;47345;52.334;10.392;2023-02-28T07:28:50;102488.21;;;-1.52;81.96
61478;BME280;47345;52.334;10.392;2023-02-28T07:31:24;102488.91;;;-1.48;82.25
61478;BME280;47345;52.334;10.392;2023-02-28T07:33:58;102495.14;;;-1.44;82.07
61478;BME280;47345;52.334;10.392;2023-02-28T07:36:32;102496.98;;;-1.42;81.98
61478;BME280;47345;52.334;10.392;2023-02-28T07:39:06;102497.52;;;-1.38;82.04
61478;BME280;47345;52.334;10.392;2023-02-28T07:41:40;102496.00;;;-1.33;82.28
61478;BME280;47345;52.334;10.392;2023-02-28T07:44:16;102495.81;;;-1.30;82.21
61478;BME280;47345;52.334;10.392;2023-02-28T07:46:49;102493.59;;;-1.25;82.46
61478;BME280;47345;52.334;10.392;2023-02-28T07:49:26;102494.20;;;-1.21;82.55
61478;BME280;47345;52.334;10.392;2023-02-28T07:51:59;102491.44;;;-1.15;82.73
61478;BME280;47345;52.334;10.392;2023-02-28T07:54:33;102493.46;;;-1.10;82.66
61478;BME280;47345;52.334;10.392;2023-02-28T07:57:07;102493.70;;;-1.05;82.49
61478;BME280;47345;52.334;10.392;2023-02-28T07:59:41;102492.98;;;-1.02;82.62
61478;BME280;47345;52.334;10.392;2023-02-28T08:02:17;102490.78;;;-0.98;82.54
61478;BME280;47345;52.334;10.392;2023-02-28T08:04:50;102500.45;;;-0.95;82.13
61478;BME280;47345;52.334;10.392;2023-02-28T08:07:25;102491.33;;;-0.92;82.17
61478;BME280;47345;52.334;10.392;2023-02-28T08:09:59;102493.77;;;-0.88;82.36
61478;BME280;47345;52.334;10.392;2023-02-28T08:12:33;102486.86;;;-0.83;82.33
61478;BME280;47345;52.334;10.392;2023-02-28T08:15:09;102489.98;;;-0.78;82.18
61478;BME280;47345;52.334;10.392;2023-02-28T08:17:43;102492.19;;;-0.72;82.23
61478;BME280;47345;52.334;10.392;2023-02-28T08:20:16;102494.23;;;-0.67;82.01
61478;BME280;47345;52.334;10.392;2023-02-28T08:22:51;102494.23;;;-0.62;82.19
61478;BME280;47345;52.334;10.392;2023-02-28T08:25:25;102497.48;;;-0.55;82.23
61478;BME280;47345;52.334;10.392;2023-02-28T08:27:58;102499.75;;;-0.49;82.25
61478;BME280;47345;52.334;10.392;2023-02-28T08:30:32;102495.07;;;-0.42;81.96
61478;BME280;47345;52.334;10.392;2023-02-28T08:33:06;102494.30;;;-0.35;81.88
61478;BME280;47345;52.334;10.392;2023-02-28T08:35:39;102495.52;;;-0.29;81.18
61478;BME280;47345;52.334;10.392;2023-02-28T08:38:12;102493.98;;;-0.21;80.53
61478;BME280;47345;52.334;10.392;2023-02-28T08:40:46;102492.61;;;-0.13;80.10
61478;BME280;47345;52.334;10.392;2023-02-28T08:43:20;102491.98;;;-0.06;79.81
61478;BME280;47345;52.334;10.392;2023-02-28T08:45:55;102495.11;;;0.02;80.02
61478;BME280;47345;52.334;10.392;2023-02-28T08:48:30;102497.47;;;0.08;79.92
61478;BME280;47345;52.334;10.392;2023-02-28T08:51:05;102493.68;;;0.13;79.79
61478;BME280;47345;52.334;10.392;2023-02-28T08:53:41;102495.14;;;0.22;79.66
61478;BME280;47345;52.334;10.392;2023-02-28T08:56:15;102492.54;;;0.29;79.39
61478;BME280;47345;52.334;10.392;2023-02-28T08:58:50;102497.69;;;0.36;79.10
61478;BME280;47345;52.334;10.392;2023-02-28T09:01:28;102498.37;;;0.42;79.22
61478;BME280;47345;52.334;10.392;2023-02-28T09:04:03;102496.06;;;0.47;79.29
61478;BME280;47345;52.334;10.392;2023-02-28T09:06:38;102500.52;;;0.54;79.41
61478;BME280;47345;52.334;10.392;2023-02-28T09:09:12;102502.67;;;0.62;79.48
61478;BME280;47345;52.334;10.392;2023-02-28T09:11:45;102498.39;;;0.70;79.11
61478;BME280;47345;52.334;10.392;2023-02-28T09:14:20;102499.12;;;0.78;78.86
61478;BME280;47345;52.334;10.392;2023-02-28T09:16:53;102496.17;;;0.85;79.21
61478;BME280;47345;52.334;10.392;2023-02-28T09:19:28;102498.94;;;0.92;78.93
61478;BME280;47345;52.334;10.392;2023-02-28T09:22:03;102499.88;;;1.00;78.48
61478;BME280;47345;52.334;10.392;2023-02-28T09:24:37;102504.19;;;1.06;78.51
61478;BME280;47345;52.334;10.392;2023-02-28T09:27:15;102500.37;;;1.12;78.06
61478;BME280;47345;52.334;10.392;2023-02-28T09:29:48;102499.95;;;1.18;78.05
61478;BME280;47345;52.334;10.392;2023-02-28T09:32:21;102500.31;;;1.26;77.93
61478;BME280;47345;52.334;10.392;2023-02-28T09:34:54;102498.45;;;1.33;77.86
61478;BME280;47345;52.334;10.392;2023-02-28T09:37:26;102497.48;;;1.39;77.94
61478;BME280;47345;52.334;10.392;2023-02-28T09:40:00;102501.43;;;1.44;77.80
61478;BME280;47345;52.334;10.392;2023-02-28T09:42:34;102500.88;;;1.50;77.47
61478;BME280;47345;52.334;10.392;2023-02-28T09:45:15;102498.80;;;1.54;76.89
61478;BME280;47345;52.334;10.392;2023-02-28T09:47:54;102502.06;;;1.59;77.10
61478;BME280;47345;52.334;10.392;2023-02-28T09:50:35;102504.27;;;1.64;76.88
61478;BME280;47345;52.334;10.392;2023-02-28T09:53:18;102501.15;;;1.70;76.41
61478;BME280;47345;52.334;10.392;2023-02-28T09:55:57;102499.35;;;1.75;76.35
61478;BME280;47345;52.334;10.392;2023-02-28T09:58:36;102502.33;;;1.79;76.28
61478;BME280;47345;52.334;10.392;2023-02-28T10:01:19;102501.48;;;1.81;75.81
61478;BME280;47345;52.334;10.392;2023-02-28T10:03:57;102504.92;;;1.83;75.31
61478;BME280;47345;52.334;10.392;2023-02-28T10:06:36;102501.44;;;1.89;75.46
61478;BME280;47345;52.334;10.392;2023-02-28T10:09:17;102495.41;;;1.96;74.91
61478;BME280;47345;52.334;10.392;2023-02-28T10:11:52;102494.66;;;2.01;74.29
61478;BME280;47345;52.334;10.392;2023-02-28T10:14:30;102501.17;;;2.06;73.58
61478;BME280;47345;52.334;10.392;2023-02-28T10:17:08;102501.20;;;2.16;72.60
61478;BME280;47345;52.334;10.392;2023-02-28T10:19:53;102500.33;;;2.26;72.97
61478;BME280;47345;52.334;10.392;2023-02-28T10:22:32;102502.19;;;2.35;72.22
61478;BME280;47345;52.334;10.392;2023-02-28T10:25:19;102506.67;;;2.46;70.21
61478;BME280;47345;52.334;10.392;2023-02-28T10:27:54;102509.73;;;2.56;70.01
61478;BME280;47345;52.334;10.392;2023-02-28T10:30:32;102512.07;;;2.66;68.47
61478;BME280;47345;52.334;10.392;2023-02-28T10:33:05;102508.02;;;2.75;65.87
61478;BME280;47345;52.334;10.392;2023-02-28T10:35:38;102503.59;;;2.81;66.33
61478;BME280;47345;52.334;10.392;2023-02-28T10:38:18;102503.76;;;2.89;65.36
61478;BME280;47345;52.334;10.392;2023-02-28T10:40:50;102506.30;;;2.96;65.29
61478;BME280;47345;52.334;10.392;2023-02-28T10:43:24;102502.68;;;3.01;65.59
61478;BME280;47345;52.334;10.392;2023-02-28T10:46:01;102500.89;;;3.03;65.31
61478;BME280;47345;52.334;10.392;2023-02-28T10:48:38;102502.52;;;3.06;64.14
61478;BME280;47345;52.334;10.392;2023-02-28T10:51:14;102499.83;;;3.05;62.81
61478;BME280;47345;52.334;10.392;2023-02-28T10:53:52;102502.20;;;3.05;62.88
61478;BME280;47345;52.334;10.392;2023-02-28T10:56:32;102496.83;;;3.04;62.62
61478;BME280;47345;52.334;10.392;2023-02-28T10:59:26;102498.75;;;3.08;62.38
61478;BME280;47345;52.334;10.392;2023-02-28T11:01:59;102499.56;;;3.09;62.59
61478;BME280;47345;52.334;10.392;2023-02-28T11:04:36;102497.91;;;3.09;62.45
61478;BME280;47345;52.334;10.392;2023-02-28T11:07:16;102493.99;;;3.09;62.05
61478;BME280;47345;52.334;10.392;2023-02-28T11:09:54;102496.30;;;3.09;62.04
61478;BME280;47345;52.334;10.392;2023-02-28T11:12:31;102496.08;;;3.07;61.55
61478;BME280;47345;52.334;10.392;2023-02-28T11:15:25;102493.77;;;3.07;61.42
61478;BME280;47345;52.334;10.392;2023-02-28T11:18:00;102484.99;;;3.06;61.38
61478;BME280;47345;52.334;10.392;2023-02-28T11:20:36;102481.41;;;3.06;61.53
61478;BME280;47345;52.334;10.392;2023-02-28T11:23:15;102481.97;;;3.06;62.27
61478;BME280;47345;52.334;10.392;2023-02-28T11:25:52;102481.61;;;3.06;62.45
61478;BME280;47345;52.334;10.392;2023-02-28T11:28:30;102482.90;;;3.05;62.54
61478;BME280;47345;52.334;10.392;2023-02-28T11:31:13;102474.17;;;3.04;62.39
61478;BME280;47345;52.334;10.392;2023-02-28T11:33:51;102472.71;;;3.02;61.49
61478;BME280;47345;52.334;10.392;2023-02-28T11:36:26;102476.88;;;2.99;60.47
61478;BME280;47345;52.334;10.392;2023-02-28T11:39:04;102472.23;;;2.96;60.13
61478;BME280;47345;52.334;10.392;2023-02-28T11:41:56;102470.63;;;2.93;60.27
61478;BME280;47345;52.334;10.392;2023-02-28T11:44:47;102470.50;;;2.90;60.38
61478;BME280;47345;52.334;10.392;2023-02-28T11:47:35;102464.94;;;2.87;60.12
61478;BME280;47345;52.334;10.392;2023-02-28T11:50:22;102464.36;;;2.90;60.53
61478;BME280;47345;52.334;10.392;2023-02-28T11:53:04;102466.99;;;2.96;61.40
61478;BME280;47345;52.334;10.392;2023-02-28T11:55:41;102466.45;;;3.01;61.60
61478;BME280;47345;52.334;10.392;2023-02-28T11:58:31;102461.59;;;3.06;61.36
61478;BME280;47345;52.334;10.392;2023-02-28T12:04:14;102459.71;;;3.09;61.17
61478;BME280;47345;52.334;10.392;2023-02-28T12:06:52;102458.30;;;3.09;60.56
61478;BME280;47345;52.334;10.392;2023-02-28T12:09:43;102454.36;;;3.08;60.14
61478;BME280;47345;52.334;10.392;2023-02-28T12:12:41;102454.30;;;3.12;60.58
61478;BME280;47345;52.334;10.392;2023-02-28T12:15:35;102449.16;;;3.20;60.15
61478;BME280;47345;52.334;10.392;2023-02-28T12:18:33;102449.70;;;3.30;60.03
61478;BME280;47345;52.334;10.392;2023-02-28T12:21:14;102445.22;;;3.39;60.16
61478;BME280;47345;52.334;10.392;2023-02-28T12:24:00;102439.79;;;3.46;59.67
61478;BME280;47345;52.334;10.392;2023-02-28T12:26:38;102437.95;;;3.54;59.55
61478;BME280;47345;52.334;10.392;2023-02-28T12:29:19;102435.50;;;3.60;59.19
61478;BME280;47345;52.334;10.392;2023-02-28T12:31:59;102433.08;;;3.63;58.64
61478;BME280;47345;52.334;10.392;2023-02-28T12:34:39;102428.77;;;3.65;58.42
61478;BME280;47345;52.334;10.392;2023-02-28T12:37:19;102431.84;;;3.65;58.15
61478;BME280;47345;52.334;10.392;2023-02-28T12:40:00;102428.98;;;3.67;57.73
61478;BME280;47345;52.334;10.392;2023-02-28T12:42:39;102422.08;;;3.68;57.89
61478;BME280;47345;52.334;10.392;2023-02-28T12:45:19;102421.89;;;3.68;58.61
61478;BME280;47345;52.334;10.392;2023-02-28T12:47:58;102414.41;;;3.69;58.49
61478;BME280;47345;52.334;10.392;2023-02-28T12:50:34;102410.35;;;3.70;57.98
61478;BME280;47345;52.334;10.392;2023-02-28T12:53:12;102415.04;;;3.70;57.83
61478;BME280;47345;52.334;10.392;2023-02-28T12:55:50;102405.30;;;3.68;58.24
61478;BME280;47345;52.334;10.392;2023-02-28T12:58:29;102403.60;;;3.68;58.30
61478;BME280;47345;52.334;10.392;2023-02-28T13:07:49;102388.77;;;3.69;58.15
61478;BME280;47345;52.334;10.392;2023-02-28T13:10:26;102384.70;;;3.68;57.70
61478;BME280;47345;52.334;10.392;2023-02-28T13:13:16;102377.48;;;3.68;57.99
61478;BME280;47345;52.334;10.392;2023-02-28T13:16:08;102375.60;;;3.69;58.34
61478;BME280;47345;52.334;10.392;2023-02-28T13:18:44;102368.32;;;3.70;57.36
61478;BME280;47345;52.334;10.392;2023-02-28T13:21:26;102361.82;;;3.70;57.51
61478;BME280;47345;52.334;10.392;2023-02-28T13:24:07;102358.20;;;3.68;57.02
61478;BME280;47345;52.334;10.392;2023-02-28T13:29:48;102361.85;;;3.67;57.89
61478;BME280;47345;52.334;10.392;2023-02-28T13:32:35;102359.10;;;3.66;57.75
61478;BME280;47345;52.334;10.392;2023-02-28T13:35:37;102354.97;;;3.61;57.99
61478;BME280;47345;52.334;10.392;2023-02-28T13:38:32;102358.86;;;3.64;57.39
61478;BME280;47345;52.334;10.392;2023-02-28T13:44:27;102359.52;;;3.65;57.79
61478;BME280;47345;52.334;10.392;2023-02-28T13:50:24;102363.82;;;3.67;56.87
61478;BME280;47345;52.334;10.392;2023-02-28T13:56:06;102366.82;;;3.68;57.38
61478;BME280;47345;52.334;10.392;2023-02-28T13:58:46;102369.37;;;3.68;57.60
61478;BME280;47345;52.334;10.392;2023-02-28T14:01:36;102365.64;;;3.69;58.55
61478;BME280;47345;52.334;10.392;2023-02-28T14:07:30;102367.94;;;3.72;57.36
61478;BME280;47345;52.334;10.392;2023-02-28T14:10:08;102360.60;;;3.74;57.12
61478;BME280;47345;52.334;10.392;2023-02-28T14:13:11;102363.41;;;3.75;56.56